Time;durP1;ratioP1;P1;durP2;ratioP2;P2;SDS_P1;SDS_P2;PMS_P1;PMS_P2;Temp;Humidity;BMP_temperature;BMP_pressure;BME280_temperature;BME280_humidity;BME280_pressure;Samples;Min_cycle;Max_cycle;Signal;HPM_P1;HPM_P2
2022/06/04 00:00:09;;;;;;;;;;;;;;;16.42;83.19;96893.41;30001;983;1864;-65
2022/06/04 00:00:41;;;;;;;;;;;;;;;16.42;83.27;96892.59;30001;983;1868;-65
2022/06/04 00:01:12;;;;;;;;;;;;;;;16.43;83.24;96894.22;30001;983;1877;-64
2022/06/04 00:01:44;;;;;;;;;;;;;;;16.42;83.15;96887.94;30001;983;1877;-64
2022/06/04 00:02:15;;;;;;;;;;;;;;;16.42;82.91;96890.66;30001;982;1877;-63
2022/06/04 00:02:47;;;;;;;;;;;;;;;16.42;82.95;96892.59;30001;982;1877;-64
2022/06/04 00:03:18;;;;;;;;;;;;;;;16.42;82.71;96892.59;30001;982;1877;-65
2022/06/04 00:03:49;;;;;;;;;;;;;;;16.41;83.21;96896.47;30001;982;1864;-64
2022/06/04 00:04:20;;;;;;;;;;;;;;;16.40;83.49;96895.66;30001;983;1868;-65
2022/06/04 00:04:50;;;;;;;;;;;;;;;16.38;83.71;96891.66;30001;983;1876;-65
2022/06/04 00:05:23;;;;;;;;;;;;;;;16.36;84.07;96893.91;30001;983;1793;-63
2022/06/04 00:05:55;;;;;;;;;;;;;;;16.32;84.68;96891.03;30001;983;1876;-65
2022/06/04 00:06:26;;;;;;;;;;;;;;;16.28;85.05;96886.56;30001;983;1876;-65
2022/06/04 00:06:57;;;;;;;;;;;;;;;16.25;85.17;96889.97;30001;983;1877;-66
2022/06/04 00:07:28;;;;;;;;;;;;;;;16.25;85.13;96895.44;30001;983;1877;-65
2022/06/04 00:08:00;;;;;;;;;;;;;;;16.24;84.71;96891.91;30001;983;1877;-64
2022/06/04 00:08:32;;;;;;;;;;;;;;;16.25;84.50;96887.22;30001;983;1877;-52
2022/06/04 00:09:05;;;;;;;;;;;;;;;16.25;84.58;96892.69;30001;983;1864;-65
2022/06/04 00:09:36;;;;;;;;;;;;;;;16.28;84.04;96881.09;30001;982;1868;-64
2022/06/04 00:15:59;;;;;;;;;;;;;;;16.36;83.45;96872.00;30001;983;1864;-65
2022/06/04 00:16:30;;;;;;;;;;;;;;;16.36;83.48;96866.53;30001;982;1868;-63
2022/06/04 00:17:01;;;;;;;;;;;;;;;16.37;83.54;96870.88;30001;982;1877;-66
2022/06/04 00:17:32;;;;;;;;;;;;;;;16.38;83.46;96875.22;30001;965;1861;-63
2022/06/04 00:18:03;;;;;;;;;;;;;;;16.38;83.48;96872.50;30001;982;1877;-53
2022/06/04 00:18:34;;;;;;;;;;;;;;;16.38;83.13;96875.22;30001;982;1877;-66
2022/06/04 00:19:05;;;;;;;;;;;;;;;16.38;83.23;96875.22;30001;982;1877;-64
2022/06/04 00:19:36;;;;;;;;;;;;;;;16.39;83.05;96882.31;30001;983;1876;-65
2022/06/04 00:20:09;;;;;;;;;;;;;;;16.39;83.33;96882.31;30001;983;1876;-63
2022/06/04 00:20:40;;;;;;;;;;;;;;;16.39;83.39;96887.78;30001;983;1863;-63
2022/06/04 00:21:12;;;;;;;;;;;;;;;16.40;82.90;96889.38;30001;983;1855;-66
2022/06/04 00:21:43;;;;;;;;;;;;;;;16.40;82.98;96881.19;30001;983;1876;-65
2022/06/04 00:22:18;;;;;;;;;;;;;;;16.41;83.03;96882.78;30001;983;1877;-64
2022/06/04 00:22:49;;;;;;;;;;;;;;;16.41;83.23;96883.59;30001;983;1877;-64
2022/06/04 00:23:26;;;;;;;;;;;;;;;16.42;82.85;96887.12;30001;983;1864;-64
2022/06/04 00:23:56;;;;;;;;;;;;;;;16.45;83.30;96896.63;30001;982;1868;-66
2022/06/04 00:24:28;;;;;;;;;;;;;;;16.46;83.06;96893.56;30001;982;1877;-65
2022/06/04 00:24:58;;;;;;;;;;;;;;;16.48;83.22;96891.28;30001;982;1877;-66
2022/06/04 00:25:30;;;;;;;;;;;;;;;16.50;82.85;96894.50;30001;982;1864;-64
2022/06/04 00:26:03;;;;;;;;;;;;;;;16.51;82.82;96893.38;30001;982;1868;-66
2022/06/04 00:26:34;;;;;;;;;;;;;;;16.51;83.02;96896.09;30001;982;1877;-64
2022/06/04 00:27:05;;;;;;;;;;;;;;;16.50;83.21;96894.50;30001;983;1876;-65
2022/06/04 00:27:35;;;;;;;;;;;;;;;16.51;82.95;96898.03;30001;983;1876;-65
2022/06/04 00:28:08;;;;;;;;;;;;;;;16.51;83.20;96896.09;30001;983;1876;-65
2022/06/04 00:28:39;;;;;;;;;;;;;;;16.52;83.20;96897.72;30001;983;1876;-64
2022/06/04 00:29:10;;;;;;;;;;;;;;;16.52;83.18;96894.16;30001;983;1876;-66
2022/06/04 00:29:40;;;;;;;;;;;;;;;16.49;82.98;96890.16;30001;983;1863;-65
2022/06/04 00:30:12;;;;;;;;;;;;;;;16.49;83.31;96883.87;30001;983;1868;-64
2022/06/04 00:30:43;;;;;;;;;;;;;;;16.48;82.95;96885.00;30001;983;1877;-65
2022/06/04 00:31:15;;;;;;;;;;;;;;;16.46;82.94;96882.59;30001;982;1877;-65
2022/06/04 00:31:46;;;;;;;;;;;;;;;16.47;83.16;96889.69;30001;982;1877;-64
2022/06/04 00:32:17;;;;;;;;;;;;;;;16.47;83.38;96881.47;30001;982;1877;-65
2022/06/04 00:32:48;;;;;;;;;;;;;;;16.49;83.41;96890.16;30001;982;1877;-66
2022/06/04 00:33:20;;;;;;;;;;;;;;;16.51;83.57;96889.81;30001;982;1877;-65
2022/06/04 00:33:50;;;;;;;;;;;;;;;16.52;83.67;96896.91;30001;982;1877;-64
2022/06/04 00:34:21;;;;;;;;;;;;;;;16.53;83.61;96891.09;30001;982;1864;-65
2022/06/04 00:34:52;;;;;;;;;;;;;;;16.53;83.25;96888.38;30001;983;1868;-67
2022/06/04 00:35:23;;;;;;;;;;;;;;;16.52;83.35;96886.75;30001;983;1877;-65
2022/06/04 00:35:56;;;;;;;;;;;;;;;16.52;83.34;96892.22;30001;983;1863;-64
2022/06/04 00:36:27;;;;;;;;;;;;;;;16.51;83.37;96887.88;30001;983;1868;-66
2022/06/04 00:36:58;;;;;;;;;;;;;;;16.52;83.05;96883.22;30001;983;1877;-66
2022/06/04 00:37:34;;;;;;;;;;;;;;;16.53;83.10;96885.63;30001;983;1877;-65
2022/06/04 00:38:05;;;;;;;;;;;;;;;16.56;83.17;96886.91;30001;970;1886;-65
2022/06/04 00:38:37;;;;;;;;;;;;;;;16.57;83.09;96888.50;30001;983;1868;-65
2022/06/04 00:39:07;;;;;;;;;;;;;;;16.56;83.19;96887.69;30001;982;1877;-63
2022/06/04 00:39:39;;;;;;;;;;;;;;;16.54;83.25;96884.50;30001;982;1864;-61
2022/06/04 00:40:14;;;;;;;;;;;;;;;16.54;82.95;96887.22;30001;982;1868;-58
2022/06/04 00:40:48;;;;;;;;;;;;;;;16.53;83.30;96882.88;30001;982;1877;-60
2022/06/04 00:41:23;;;;;;;;;;;;;;;16.53;83.23;96882.88;30001;982;1877;-60
2022/06/04 00:42:00;;;;;;;;;;;;;;;16.53;83.18;96885.63;30001;982;1864;-53
2022/06/04 00:42:31;;;;;;;;;;;;;;;16.53;82.94;96887.56;30001;983;1868;-62
2022/06/04 00:43:03;;;;;;;;;;;;;;;16.53;83.28;96880.16;30001;983;1876;-61
2022/06/04 00:43:55;;;;;;;;;;;;;;;16.54;83.02;96880.94;30001;983;1877;-60
2022/06/04 00:44:48;;;;;;;;;;;;;;;16.52;83.17;96881.28;30001;983;1872;-62
2022/06/04 00:45:45;;;;;;;;;;;;;;;16.53;83.11;96888.38;30001;983;1859;-63
2022/06/04 00:46:36;;;;;;;;;;;;;;;16.54;83.14;96873.53;30001;982;1864;-53
2022/06/04 00:47:14;;;;;;;;;;;;;;;16.54;82.84;96878.22;30001;982;1859;-60
2022/06/04 00:47:45;;;;;;;;;;;;;;;16.53;83.16;96877.41;30001;982;1868;-61
2022/06/04 00:48:16;;;;;;;;;;;;;;;16.54;82.90;96879.00;30001;982;1877;-61
2022/06/04 00:48:47;;;;;;;;;;;;;;;16.54;82.78;96873.53;30001;983;1876;-64
2022/06/04 00:49:21;;;;;;;;;;;;;;;16.55;82.69;96880.62;30001;983;1876;-60
2022/06/04 00:49:51;;;;;;;;;;;;;;;16.54;82.75;96873.53;30001;983;1877;-62
2022/06/04 00:50:23;;;;;;;;;;;;;;;16.55;82.73;96875.13;30001;983;1876;-62
2022/06/04 00:50:53;;;;;;;;;;;;;;;16.54;83.02;96879.00;30001;983;1863;-60
2022/06/04 00:51:27;;;;;;;;;;;;;;;16.54;83.02;96870.00;30001;983;1868;-61
2022/06/04 00:52:05;;;;;;;;;;;;;;;16.53;83.07;96877.41;30001;983;1863;-63
2022/06/04 00:52:40;;;;;;;;;;;;;;;16.53;83.03;96871.94;30001;983;1868;-62
2022/06/04 00:53:12;;;;;;;;;;;;;;;16.52;83.27;96864.84;30001;983;1876;-53
2022/06/04 00:53:43;;;;;;;;;;;;;;;16.50;83.01;96869.03;30001;983;1877;-61
2022/06/04 00:54:15;;;;;;;;;;;;;;;16.49;82.87;96864.69;30001;982;1877;-62
2022/06/04 00:54:47;;;;;;;;;;;;;;;16.48;82.92;96868.56;30001;982;1877;-61
2022/06/04 00:55:19;;;;;;;;;;;;;;;16.47;82.96;96872.44;30001;982;1877;-62
2022/06/04 00:55:57;;;;;;;;;;;;;;;16.47;83.25;96872.44;30001;982;1877;-62
2022/06/04 00:56:37;;;;;;;;;;;;;;;16.46;83.23;96871.62;30001;983;1876;-61
2022/06/04 00:57:23;;;;;;;;;;;;;;;16.46;83.15;96868.91;30001;983;1863;-62
2022/06/04 00:58:14;;;;;;;;;;;;;;;16.45;83.37;96870.03;30001;983;1868;-54
2022/06/04 00:59:07;;;;;;;;;;;;;;;16.46;83.15;96871.62;30001;983;1872;-61
2022/06/04 01:00:04;;;;;;;;;;;;;;;16.45;83.22;96878.25;30001;983;1872;-63
2022/06/04 01:00:38;;;;;;;;;;;;;;;16.46;83.22;96876.31;30001;983;1873;-61
2022/06/04 01:01:18;;;;;;;;;;;;;;;16.46;83.28;96879.06;30001;983;1877;-62
2022/06/04 01:02:12;;;;;;;;;;;;;;;16.46;83.14;96881.78;30001;982;1864;-61
2022/06/04 01:02:54;;;;;;;;;;;;;;;16.45;83.32;96875.50;30001;982;1868;-62
2022/06/04 01:03:53;;;;;;;;;;;;;;;16.46;83.12;96879.84;30001;982;1877;-61
2022/06/04 01:04:56;;;;;;;;;;;;;;;16.47;83.29;96883.41;30001;983;1872;-60
2022/06/04 01:05:49;;;;;;;;;;;;;;;16.46;83.23;96877.13;30001;983;1872;-62
2022/06/04 01:06:26;;;;;;;;;;;;;;;16.46;83.26;96877.13;30001;983;1877;-62
2022/06/04 01:07:04;;;;;;;;;;;;;;;16.46;83.29;96877.13;30001;983;1863;-62
2022/06/04 01:08:06;;;;;;;;;;;;;;;16.47;83.24;96873.25;30001;983;1868;-60
2022/06/04 01:08:52;;;;;;;;;;;;;;;16.47;83.58;96873.25;30001;983;1872;-62
2022/06/04 01:09:40;;;;;;;;;;;;;;;16.47;83.58;96878.72;30001;982;1864;-61
2022/06/04 01:10:21;;;;;;;;;;;;;;;16.47;83.34;96877.91;30001;982;1868;-62
2022/06/04 01:11:21;;;;;;;;;;;;;;;16.46;83.49;96877.13;30001;982;1877;-61
2022/06/04 01:12:11;;;;;;;;;;;;;;;16.45;83.38;96877.44;30001;983;1859;-61
2022/06/04 01:13:08;;;;;;;;;;;;;;;16.43;83.31;96872.31;30001;983;1868;-62
2022/06/04 01:14:08;;;;;;;;;;;;;;;16.45;83.46;96877.44;30001;983;1872;-63
2022/06/04 01:15:11;;;;;;;;;;;;;;;16.45;83.70;96875.50;30001;978;1872;-62
2022/06/04 01:15:57;;;;;;;;;;;;;;;16.46;83.37;96877.13;30001;983;1864;-63
2022/06/04 01:17:03;;;;;;;;;;;;;;;16.47;83.76;96878.72;30001;982;1864;-61
2022/06/04 01:17:42;;;;;;;;;;;;;;;16.47;83.49;96880.66;30001;982;1864;-62
2022/06/04 01:18:25;;;;;;;;;;;;;;;16.48;83.66;96879.53;30001;982;1877;-60
2022/06/04 01:19:16;;;;;;;;;;;;;;;16.48;83.51;96880.34;30001;983;1876;-61
2022/06/04 01:20:05;;;;;;;;;;;;;;;16.49;83.66;96876.47;30001;983;1872;-62
2022/06/04 01:20:52;;;;;;;;;;;;;;;16.48;83.63;96877.59;30001;983;1868;-62
2022/06/04 01:21:55;;;;;;;;;;;;;;;16.47;83.61;96875.19;30001;983;1876;-60
2022/06/04 01:22:41;;;;;;;;;;;;;;;16.45;83.62;96878.25;30001;983;1859;-62
2022/06/04 01:23:30;;;;;;;;;;;;;;;16.43;83.98;96875.03;30001;982;1868;-62
2022/06/04 01:24:36;;;;;;;;;;;;;;;16.43;83.71;96883.25;30001;982;1877;-61
2022/06/04 01:25:42;;;;;;;;;;;;;;;16.39;83.82;96877.63;30001;982;1873;-62
2022/06/04 01:26:45;;;;;;;;;;;;;;;16.37;83.71;96873.63;30001;982;1873;-53
2022/06/04 01:27:23;;;;;;;;;;;;;;;16.35;84.09;96878.63;30001;983;1872;-62
2022/06/04 01:28:00;;;;;;;;;;;;;;;16.34;84.01;96885.22;30001;983;1863;-63
2022/06/04 01:28:35;;;;;;;;;;;;;;;16.33;84.15;96883.63;30001;983;1868;-62
2022/06/04 01:29:09;;;;;;;;;;;;;;;16.33;83.80;96889.91;30001;983;1877;-62
2022/06/04 01:29:53;;;;;;;;;;;;;;;16.32;84.14;96884.75;30001;983;1877;-62
2022/06/04 01:30:30;;;;;;;;;;;;;;;16.32;83.92;96876.53;30001;983;1864;-62
2022/06/04 01:31:05;;;;;;;;;;;;;;;16.31;83.94;96881.22;30001;982;1868;-61
2022/06/04 01:31:44;;;;;;;;;;;;;;;16.32;83.95;96882.00;30001;982;1877;-62
2022/06/04 01:32:38;;;;;;;;;;;;;;;16.31;84.08;96880.41;30001;982;1877;-62
2022/06/04 01:33:20;;;;;;;;;;;;;;;16.32;84.38;96882.00;30001;982;1877;-62
2022/06/04 01:33:53;;;;;;;;;;;;;;;16.32;84.13;96882.00;30001;982;1877;-53
2022/06/04 01:34:29;;;;;;;;;;;;;;;16.30;84.28;96885.09;30001;983;1876;-62
2022/06/04 01:35:04;;;;;;;;;;;;;;;16.31;84.45;96885.88;30001;983;1863;-62
2022/06/04 01:35:58;;;;;;;;;;;;;;;16.29;84.15;96883.47;30001;983;1868;-62
2022/06/04 01:36:32;;;;;;;;;;;;;;;16.30;84.54;96890.56;30001;983;1876;-60
2022/06/04 01:37:23;;;;;;;;;;;;;;;16.30;84.28;96889.75;30001;983;1877;-61
2022/06/04 01:38:09;;;;;;;;;;;;;;;16.29;84.20;96893.63;30001;984;1873;-62
2022/06/04 01:38:42;;;;;;;;;;;;;;;16.29;84.40;96893.63;30001;982;1872;-62
2022/06/04 01:39:17;;;;;;;;;;;;;;;16.30;84.30;96884.28;30001;982;1877;-62
2022/06/04 01:41:35;;;;;;;;;;;;;;;16.30;84.40;96890.56;30001;982;1869;-62
2022/06/04 01:42:07;;;;;;;;;;;;;;;16.31;84.47;96885.88;30001;983;1876;-53
2022/06/04 01:42:43;;;;;;;;;;;;;;;16.33;84.76;96889.09;30001;983;1876;-53
2022/06/04 01:43:17;;;;;;;;;;;;;;;16.33;84.63;96884.44;30001;983;1876;-59
2022/06/04 01:43:52;;;;;;;;;;;;;;;16.34;84.97;96879.75;30001;983;1877;-62
2022/06/04 01:44:35;;;;;;;;;;;;;;;16.34;84.66;96879.75;30001;983;1877;-61
2022/06/04 01:45:09;;;;;;;;;;;;;;;16.38;84.87;96886.97;30001;983;1877;-60
2022/06/04 01:45:42;;;;;;;;;;;;;;;16.42;84.39;96887.94;30001;983;1864;-62
2022/06/04 01:46:30;;;;;;;;;;;;;;;16.42;84.35;96876.97;30001;982;1868;-61
2022/06/04 01:47:04;;;;;;;;;;;;;;;16.43;84.50;96883.25;30001;982;1877;-61
2022/06/04 01:47:36;;;;;;;;;;;;;;;16.46;84.17;96887.28;30001;982;1864;-61
2022/06/04 01:48:09;;;;;;;;;;;;;;;16.48;83.98;96893.22;30001;982;1868;-62
2022/06/04 01:48:42;;;;;;;;;;;;;;;16.48;83.83;96885.81;30001;982;1877;-61
2022/06/04 01:49:19;;;;;;;;;;;;;;;16.49;84.13;96892.09;30001;983;1876;-62
2022/06/04 01:49:52;;;;;;;;;;;;;;;16.48;83.71;96896.75;30001;983;1876;-54
2022/06/04 01:50:28;;;;;;;;;;;;;;;16.49;83.94;96887.41;30001;983;1876;-60
2022/06/04 01:51:03;;;;;;;;;;;;;;;16.49;83.87;96889.34;30001;983;1876;-62
2022/06/04 01:51:35;;;;;;;;;;;;;;;16.48;83.84;96891.28;30001;983;1863;-63
2022/06/04 01:52:10;;;;;;;;;;;;;;;16.48;83.68;96891.28;30001;983;1868;-62
2022/06/04 01:52:42;;;;;;;;;;;;;;;16.48;83.56;96895.97;30001;983;1877;-62
2022/06/04 01:53:15;;;;;;;;;;;;;;;16.46;83.62;96893.56;30001;983;1877;-63
2022/06/04 01:53:48;;;;;;;;;;;;;;;16.46;83.95;96890.81;30001;982;1864;-62
2022/06/04 01:54:24;;;;;;;;;;;;;;;16.46;83.57;96892.75;30001;982;1868;-61
2022/06/04 01:55:07;;;;;;;;;;;;;;;16.44;83.63;96887.59;30001;982;1877;-60
2022/06/04 01:55:44;;;;;;;;;;;;;;;16.42;83.66;96887.12;30001;982;1877;-54
2022/06/04 01:56:23;;;;;;;;;;;;;;;16.42;83.98;96892.59;30001;983;1876;-62
2022/06/04 01:56:57;;;;;;;;;;;;;;;16.42;83.88;96887.12;30001;983;1876;-62
2022/06/04 01:58:00;;;;;;;;;;;;;;;16.41;83.96;96885.53;30001;983;1768;-61
2022/06/04 01:58:34;;;;;;;;;;;;;;;16.42;83.67;96887.94;30001;983;1864;-62
2022/06/04 01:59:17;;;;;;;;;;;;;;;16.40;83.90;96883.91;30001;983;1876;-62
2022/06/04 01:59:58;;;;;;;;;;;;;;;16.39;84.04;96887.78;30001;983;1877;-63
2022/06/04 02:00:32;;;;;;;;;;;;;;;16.36;83.90;96889.25;30001;983;1877;-54
2022/06/04 02:01:05;;;;;;;;;;;;;;;16.33;84.06;96889.91;30001;982;1877;-62
2022/06/04 02:01:37;;;;;;;;;;;;;;;16.32;84.25;96887.50;30001;982;1877;-62
2022/06/04 02:02:12;;;;;;;;;;;;;;;16.30;84.22;96885.09;30001;982;1877;-61
2022/06/04 02:02:46;;;;;;;;;;;;;;;16.29;84.53;96885.41;30001;982;1864;-60
2022/06/04 02:03:19;;;;;;;;;;;;;;;16.29;84.37;96888.16;30001;982;1868;-62
2022/06/04 02:04:16;;;;;;;;;;;;;;;16.26;84.59;96888.84;30001;983;1876;-63
2022/06/04 02:04:50;;;;;;;;;;;;;;;16.25;84.52;96881.75;30001;983;1872;-62
2022/06/04 02:05:25;;;;;;;;;;;;;;;16.22;84.47;96885.94;30001;983;1876;-62
2022/06/04 02:06:01;;;;;;;;;;;;;;;16.21;84.59;96880.81;30001;983;1877;-62
2022/06/04 02:07:29;;;;;;;;;;;;;;;16.18;84.72;96881.47;30001;983;1877;-61
2022/06/04 02:07:38;;;;;;;;;;;;;;;16.15;84.98;96887.59;30001;983;1877;-62
2022/06/04 02:08:12;;;;;;;;;;;;;;;16.12;85.06;96888.25;30001;983;1864;-61
2022/06/04 02:08:47;;;;;;;;;;;;;;;16.11;84.96;96886.63;30001;982;1869;-61
2022/06/04 02:09:19;;;;;;;;;;;;;;;16.11;85.27;96892.09;30001;982;1877;-62
2022/06/04 02:09:52;;;;;;;;;;;;;;;16.11;85.29;96886.63;30001;982;1877;-62
2022/06/04 02:10:48;;;;;;;;;;;;;;;16.11;85.28;96892.09;30001;982;1877;-62
2022/06/04 02:11:20;;;;;;;;;;;;;;;16.14;85.49;96894.19;30001;983;1872;-62
2022/06/04 02:11:53;;;;;;;;;;;;;;;16.15;85.24;96893.06;30001;983;1876;-61
2022/06/04 02:12:24;;;;;;;;;;;;;;;16.15;85.10;96893.88;30001;983;1876;-61
2022/06/04 02:12:58;;;;;;;;;;;;;;;16.15;85.41;96893.06;30001;983;1876;-62
2022/06/04 02:13:29;;;;;;;;;;;;;;;16.16;85.12;96889.19;30001;983;1863;-60
2022/06/04 02:14:07;;;;;;;;;;;;;;;16.16;85.25;96886.47;30001;983;1868;-62
2022/06/04 02:14:40;;;;;;;;;;;;;;;16.14;85.10;96892.25;30001;983;1877;-62
2022/06/04 02:15:20;;;;;;;;;;;;;;;16.13;85.18;96885.19;30001;983;1877;-62
2022/06/04 02:15:58;;;;;;;;;;;;;;;16.14;85.34;96885.97;30001;983;1863;-60
2022/06/04 02:16:33;;;;;;;;;;;;;;;16.15;85.41;96887.59;30001;982;1868;-62
2022/06/04 02:17:06;;;;;;;;;;;;;;;16.17;85.35;96890.81;30001;982;1877;-53
2022/06/04 02:17:38;;;;;;;;;;;;;;;16.17;85.03;96882.59;30001;982;1877;-62
2022/06/04 02:18:10;;;;;;;;;;;;;;;16.18;84.97;96882.25;30001;982;1877;-62
2022/06/04 02:18:41;;;;;;;;;;;;;;;16.18;84.99;96881.47;30001;983;1876;-62
2022/06/04 02:19:12;;;;;;;;;;;;;;;16.18;85.22;96878.72;30001;983;1876;-62
2022/06/04 02:19:44;;;;;;;;;;;;;;;16.19;84.95;96878.41;30001;983;1876;-62
2022/06/04 02:20:15;;;;;;;;;;;;;;;16.18;85.04;96882.25;30001;983;1877;-61
2022/06/04 02:20:46;;;;;;;;;;;;;;;16.18;84.88;96882.25;30001;983;1877;-60
2022/06/04 02:21:18;;;;;;;;;;;;;;;16.16;84.90;96883.72;30001;972;1884;-61
2022/06/04 02:21:49;;;;;;;;;;;;;;;16.14;85.23;96875.03;30001;983;1868;-62
2022/06/04 02:22:19;;;;;;;;;;;;;;;16.13;85.03;96873.44;30001;983;1877;-61
2022/06/04 02:22:51;;;;;;;;;;;;;;;16.11;85.13;96875.69;30001;983;1877;-61
2022/06/04 02:23:22;;;;;;;;;;;;;;;16.09;85.23;96874.06;30001;983;1877;-61
2022/06/04 02:23:54;;;;;;;;;;;;;;;16.09;85.45;96874.06;30001;982;1877;-61
2022/06/04 02:24:25;;;;;;;;;;;;;;;16.07;85.35;96870.06;30001;982;1864;-60
2022/06/04 02:24:56;;;;;;;;;;;;;;;16.06;85.51;96880.22;30001;982;1868;-62
2022/06/04 02:25:29;;;;;;;;;;;;;;;16.06;85.82;96873.94;30001;982;1877;-61
2022/06/04 02:26:00;;;;;;;;;;;;;;;16.05;85.77;96873.12;30001;982;1877;-62
2022/06/04 02:26:30;;;;;;;;;;;;;;;16.04;85.66;96868.78;30001;983;1876;-62
2022/06/04 02:27:04;;;;;;;;;;;;;;;16.02;85.63;96868.31;30001;983;1877;-62
2022/06/04 02:27:35;;;;;;;;;;;;;;;16.00;85.79;96876.03;30001;983;1877;-62
2022/06/04 02:28:07;;;;;;;;;;;;;;;16.00;85.59;96873.31;30001;983;1877;-62
2022/06/04 02:28:38;;;;;;;;;;;;;;;15.99;85.67;96871.69;30001;983;1877;-60
2022/06/04 02:29:09;;;;;;;;;;;;;;;16.00;85.80;96869.75;30001;983;1877;-61
2022/06/04 02:29:40;;;;;;;;;;;;;;;15.99;85.81;96871.69;30001;983;1863;-60
2022/06/04 02:30:12;;;;;;;;;;;;;;;15.97;86.03;96868.47;30001;983;1855;-63
2022/06/04 02:30:49;;;;;;;;;;;;;;;15.96;85.88;96875.09;30001;982;1877;-61
2022/06/04 02:31:40;;;;;;;;;;;;;;;15.96;86.12;96863.34;30001;986;1877;-62
2022/06/04 02:32:31;;;;;;;;;;;;;;;15.93;86.17;96872.22;30001;982;1873;-62
2022/06/04 02:33:21;;;;;;;;;;;;;;;15.92;86.21;96868.69;30001;982;1860;-62
2022/06/04 02:33:55;;;;;;;;;;;;;;;15.92;86.27;96876.09;30001;983;1867;-62
2022/06/04 02:34:55;;;;;;;;;;;;;;;15.93;86.09;96881.25;30001;983;1876;-53
2022/06/04 02:35:32;;;;;;;;;;;;;;;15.92;86.11;96876.91;30001;983;1872;-54
2022/06/04 02:36:09;;;;;;;;;;;;;;;15.94;86.25;96871.88;30001;983;1877;-62
2022/06/04 02:37:15;;;;;;;;;;;;;;;15.95;86.14;96873.47;30001;983;1877;-60
2022/06/04 02:37:53;;;;;;;;;;;;;;;15.95;86.01;96878.94;30001;982;1872;-62
2022/06/04 02:38:50;;;;;;;;;;;;;;;15.94;86.17;96880.09;30001;982;1864;-60
2022/06/04 02:39:29;;;;;;;;;;;;;;;15.93;86.21;96870.28;30001;982;1864;-62
2022/06/04 02:40:12;;;;;;;;;;;;;;;15.94;86.33;96877.34;30001;982;1877;-62
2022/06/04 02:40:51;;;;;;;;;;;;;;;15.94;86.19;96874.59;30001;982;1877;-53
2022/06/04 02:41:27;;;;;;;;;;;;;;;15.95;86.07;96887.16;30001;983;1864;-53
2022/06/04 02:42:18;;;;;;;;;;;;;;;15.95;86.30;96881.69;30001;983;1868;-62
2022/06/04 02:43:20;;;;;;;;;;;;;;;15.94;86.12;96885.56;30001;983;1859;-61
2022/06/04 02:43:55;;;;;;;;;;;;;;;15.93;86.18;96878.50;30001;983;1863;-62
2022/06/04 02:44:27;;;;;;;;;;;;;;;15.92;86.39;96876.91;30001;983;1877;-62
2022/06/04 02:45:02;;;;;;;;;;;;;;;15.93;86.14;96875.78;30001;983;1877;-60
2022/06/04 02:45:41;;;;;;;;;;;;;;;15.96;86.14;96875.09;30001;982;1864;-62
2022/06/04 02:46:31;;;;;;;;;;;;;;;15.97;86.08;96882.16;30001;982;1868;-62
2022/06/04 02:47:13;;;;;;;;;;;;;;;15.96;86.00;96875.09;30001;982;1873;-61
2022/06/04 02:47:58;;;;;;;;;;;;;;;15.99;86.06;96881.84;30001;982;1877;-62
2022/06/04 02:48:43;;;;;;;;;;;;;;;16.01;86.14;96871.38;30001;982;1877;-62
2022/06/04 02:49:19;;;;;;;;;;;;;;;16.02;86.14;96862.84;30001;983;1876;-61
2022/06/04 02:50:00;;;;;;;;;;;;;;;16.01;86.00;96866.69;30001;983;1877;-62
2022/06/04 02:50:36;;;;;;;;;;;;;;;16.03;85.89;96871.84;30001;983;1876;-62
2022/06/04 02:51:10;;;;;;;;;;;;;;;16.02;85.60;96862.84;30001;983;1863;-62
2022/06/04 02:51:43;;;;;;;;;;;;;;;16.02;85.75;96867.50;30001;983;1868;-60
2022/06/04 02:52:16;;;;;;;;;;;;;;;16.02;85.87;96862.84;30001;983;1877;-62
2022/06/04 02:52:48;;;;;;;;;;;;;;;16.02;85.92;96857.34;30001;983;1877;-62
2022/06/04 02:53:19;;;;;;;;;;;;;;;16.02;85.79;96865.56;30001;982;1877;-61
2022/06/04 02:53:56;;;;;;;;;;;;;;;16.01;85.66;96866.69;30001;982;1877;-62
2022/06/04 02:54:29;;;;;;;;;;;;;;;15.98;86.03;96861.88;30001;982;1877;-62
2022/06/04 02:55:03;;;;;;;;;;;;;;;15.97;85.76;96860.28;30001;982;1877;-62
2022/06/04 02:55:41;;;;;;;;;;;;;;;15.96;85.84;96858.66;30001;982;1877;-60
2022/06/04 02:56:15;;;;;;;;;;;;;;;15.96;86.17;96864.12;30001;983;1863;-53
2022/06/04 02:56:47;;;;;;;;;;;;;;;15.96;85.86;96861.41;30001;983;1867;-62
2022/06/04 02:57:18;;;;;;;;;;;;;;;15.95;86.03;96861.72;30001;983;1877;-60
2022/06/04 02:57:51;;;;;;;;;;;;;;;15.95;86.10;96867.19;30001;983;1876;-60
2022/06/04 02:58:23;;;;;;;;;;;;;;;15.95;86.28;96856.25;30001;983;1876;-62
2022/06/04 02:58:56;;;;;;;;;;;;;;;15.95;85.95;96854.31;30001;983;1877;-62
2022/06/04 02:59:27;;;;;;;;;;;;;;;15.97;86.31;96864.94;30001;983;1877;-60
2022/06/04 02:59:59;;;;;;;;;;;;;;;15.98;86.19;96861.06;30001;983;1877;-62
2022/06/04 03:00:30;;;;;;;;;;;;;;;15.98;85.81;96856.41;30001;982;1877;-60
2022/06/04 03:01:03;;;;;;;;;;;;;;;15.99;85.89;96858.00;30001;982;1877;-60
2022/06/04 03:01:37;;;;;;;;;;;;;;;15.99;86.12;96858.00;30001;982;1864;-60
2022/06/04 03:02:10;;;;;;;;;;;;;;;16.01;86.06;96854.94;30001;982;1868;-61
2022/06/04 03:02:41;;;;;;;;;;;;;;;16.01;85.78;96855.75;30001;982;1877;-61
2022/06/04 03:03:12;;;;;;;;;;;;;;;16.00;85.88;96858.81;30001;983;1876;-60
2022/06/04 03:03:43;;;;;;;;;;;;;;;15.99;85.56;96857.22;30001;983;1877;-60
2022/06/04 03:04:15;;;;;;;;;;;;;;;16.00;85.99;96854.16;30001;972;1895;-61
2022/06/04 03:04:51;;;;;;;;;;;;;;;15.98;85.89;96856.41;30001;983;1876;-61
2022/06/04 03:05:23;;;;;;;;;;;;;;;15.98;86.02;96856.41;30001;983;1876;-61
2022/06/04 03:05:59;;;;;;;;;;;;;;;15.98;85.56;96850.94;30001;983;1864;-61
2022/06/04 03:06:31;;;;;;;;;;;;;;;15.98;85.64;96856.41;30001;983;1868;-61
2022/06/04 03:07:06;;;;;;;;;;;;;;;15.97;85.62;96854.00;30001;983;1877;-62
2022/06/04 03:07:42;;;;;;;;;;;;;;;15.98;85.65;96861.88;30001;983;1877;-62
2022/06/04 03:08:12;;;;;;;;;;;;;;;15.97;85.89;96854.81;30001;982;1877;-61
2022/06/04 03:08:43;;;;;;;;;;;;;;;15.97;85.63;96852.06;30001;982;1877;-61
2022/06/04 03:09:16;;;;;;;;;;;;;;;15.96;85.77;96852.38;30001;982;1877;-62
2022/06/04 03:09:48;;;;;;;;;;;;;;;15.94;85.82;96858.19;30001;982;1877;-59
2022/06/04 03:10:21;;;;;;;;;;;;;;;15.94;85.97;96849.22;30001;982;1877;-62
2022/06/04 03:10:52;;;;;;;;;;;;;;;15.92;85.87;96849.53;30001;983;1863;-60
2022/06/04 03:11:22;;;;;;;;;;;;;;;15.94;86.00;96849.97;30001;983;1868;-62
2022/06/04 03:11:53;;;;;;;;;;;;;;;15.95;85.98;96857.06;30001;983;1876;-63
2022/06/04 03:12:24;;;;;;;;;;;;;;;15.97;85.92;96854.00;30001;983;1876;-61
2022/06/04 03:12:57;;;;;;;;;;;;;;;15.97;85.54;96849.31;30001;983;1877;-61
2022/06/04 03:13:28;;;;;;;;;;;;;;;15.99;85.78;96847.06;30001;983;1877;-62
2022/06/04 03:13:58;;;;;;;;;;;;;;;16.00;85.64;96850.59;30001;962;1898;-62
2022/06/04 03:14:29;;;;;;;;;;;;;;;15.99;85.51;96851.75;30001;983;1877;-53
2022/06/04 03:15:00;;;;;;;;;;;;;;;15.97;85.76;96854.00;30001;983;1877;-62
2022/06/04 03:15:31;;;;;;;;;;;;;;;15.96;85.76;96853.19;30001;982;1864;-62
2022/06/04 03:16:02;;;;;;;;;;;;;;;15.96;85.88;96852.38;30001;982;1855;-62
2022/06/04 03:16:35;;;;;;;;;;;;;;;15.94;85.92;96855.44;30001;982;1877;-62
2022/06/04 03:17:07;;;;;;;;;;;;;;;15.95;85.87;96851.59;30001;982;1877;-62
2022/06/04 03:17:39;;;;;;;;;;;;;;;15.98;86.00;96850.94;30001;982;1877;-55
2022/06/04 03:18:10;;;;;;;;;;;;;;;15.99;85.64;96844.34;30001;983;1876;-62
2022/06/04 03:18:40;;;;;;;;;;;;;;;15.98;85.71;96850.94;30001;983;1876;-61
2022/06/04 03:19:11;;;;;;;;;;;;;;;15.97;85.42;96849.31;30001;983;1876;-62
2022/06/04 03:19:42;;;;;;;;;;;;;;;15.97;85.39;96843.84;30001;983;1876;-63
2022/06/04 03:20:14;;;;;;;;;;;;;;;15.98;85.32;96845.47;30001;983;1877;-60
2022/06/04 03:20:45;;;;;;;;;;;;;;;15.99;85.26;96847.06;30001;983;1877;-61
2022/06/04 03:21:16;;;;;;;;;;;;;;;15.98;85.39;96842.72;30001;983;1864;-62
2022/06/04 03:21:47;;;;;;;;;;;;;;;15.99;85.71;96846.25;30001;983;1868;-62
2022/06/04 03:22:18;;;;;;;;;;;;;;;15.99;85.38;96846.25;30001;983;1877;-54
2022/06/04 03:22:50;;;;;;;;;;;;;;;15.98;85.36;96848.19;30001;983;1877;-61
2022/06/04 03:23:20;;;;;;;;;;;;;;;15.97;85.37;96843.06;30001;982;1877;-60
2022/06/04 03:23:51;;;;;;;;;;;;;;;15.94;85.35;96844.50;30001;982;1877;-54